createdAt,value
2022-11-23T00:04:45.237Z,4.57
2022-11-23T00:09:37.048Z,3.80
2022-11-23T00:14:28.822Z,8.43
2022-11-23T00:19:20.532Z,6.68
2022-11-23T00:24:13.442Z,3.70
2022-11-23T00:29:05.123Z,8.20
2022-11-23T00:33:57.969Z,4.88
2022-11-23T00:38:50.643Z,3.40
2022-11-23T00:43:43.396Z,5.20
2022-11-23T00:48:35.487Z,6.25
2022-11-23T00:53:27.665Z,4.25
2022-11-23T00:58:19.380Z,5.80
2022-11-23T01:03:11.078Z,4.97
2022-11-23T01:08:03.349Z,4.43
2022-11-23T01:12:54.969Z,6.30
2022-11-23T01:17:46.781Z,5.68
2022-11-23T01:22:38.480Z,2.97
2022-11-23T01:27:30.197Z,4.93
2022-11-23T01:32:21.861Z,6.20
2022-11-23T01:37:13.556Z,8.65
2022-11-23T01:42:08.167Z,5.32
2022-11-23T01:47:02.400Z,11.95
2022-11-23T01:51:58.077Z,4.35
2022-11-23T01:57:04.880Z,4.28
2022-11-23T02:01:56.825Z,9.95
2022-11-23T02:06:48.711Z,6.63
2022-11-23T02:11:40.421Z,7.63
2022-11-23T02:16:32.285Z,6.32
2022-11-23T02:21:24.348Z,8.35
2022-11-23T02:26:42.516Z,8.02
2022-11-23T02:31:34.229Z,5.40
2022-11-23T02:36:34.670Z,7.00
2022-11-23T02:41:26.371Z,7.45
2022-11-23T02:46:18.238Z,5.78
2022-11-23T02:51:09.849Z,14.80
2022-11-23T02:56:01.596Z,9.88
2022-11-23T03:00:53.309Z,9.88
2022-11-23T03:05:45.120Z,14.10
2022-11-23T03:10:37.155Z,21.05
2022-11-23T03:15:28.814Z,20.35
2022-11-23T03:20:20.798Z,21.60
2022-11-23T03:25:12.552Z,20.00
2022-11-23T03:30:04.943Z,51.55
2022-11-23T03:34:56.660Z,26.15
2022-11-23T03:39:48.323Z,15.18
2022-11-23T03:44:40.041Z,18.30
2022-11-23T03:49:31.884Z,39.30
2022-11-23T03:54:23.746Z,23.00
2022-11-23T03:59:15.645Z,12.32
2022-11-23T04:04:07.427Z,17.65
2022-11-23T04:09:02.220Z,18.48
2022-11-23T04:13:54.315Z,14.90
2022-11-23T04:18:45.876Z,10.63
2022-11-23T04:23:37.550Z,12.15
2022-11-23T04:28:29.341Z,13.43
2022-11-23T04:33:21.010Z,16.00
2022-11-23T04:38:12.751Z,9.77
2022-11-23T04:43:04.773Z,12.57
2022-11-23T04:47:56.540Z,10.82
2022-11-23T04:52:48.260Z,6.90
2022-11-23T04:57:40.026Z,7.82
2022-11-23T05:02:31.820Z,10.52
2022-11-23T05:07:23.570Z,8.15
2022-11-23T05:12:15.259Z,6.97
2022-11-23T05:17:06.985Z,10.30
2022-11-23T05:21:58.701Z,11.82
2022-11-23T05:26:54.871Z,9.43
2022-11-23T05:31:48.008Z,10.53
2022-11-23T05:36:42.397Z,8.02
2022-11-23T05:41:34.246Z,8.10
2022-11-23T05:46:25.983Z,7.32
2022-11-23T05:51:17.639Z,4.45
2022-11-23T05:56:09.539Z,4.30
2022-11-23T06:01:02.118Z,8.07
2022-11-23T06:05:53.901Z,11.07
2022-11-23T06:10:45.608Z,6.13
2022-11-23T06:15:37.623Z,4.45
2022-11-23T06:20:30.017Z,12.80
2022-11-23T06:25:22.348Z,5.50
2022-11-23T06:30:14.674Z,6.72
2022-11-23T06:35:06.645Z,6.57
2022-11-23T06:39:58.385Z,5.93
2022-11-23T06:44:50.145Z,5.57
2022-11-23T06:49:41.856Z,12.43
2022-11-23T06:54:33.457Z,8.77
2022-11-23T06:59:25.167Z,6.55
2022-11-23T07:04:16.966Z,8.65
2022-11-23T07:09:09.609Z,9.05
2022-11-23T07:14:01.166Z,2.80
2022-11-23T07:18:52.890Z,6.07
2022-11-23T07:23:44.656Z,3.75
2022-11-23T07:28:36.297Z,4.55
2022-11-23T07:33:28.113Z,2.97
2022-11-23T07:38:19.852Z,4.43
2022-11-23T07:43:11.570Z,6.30
2022-11-23T07:48:07.473Z,3.22
2022-11-23T07:52:59.270Z,4.65
2022-11-23T07:57:54.997Z,5.03
2022-11-23T08:03:11.285Z,6.72
2022-11-23T08:08:02.851Z,4.28
2022-11-23T08:12:58.454Z,8.35
2022-11-23T08:17:55.140Z,3.45
2022-11-23T08:22:46.973Z,3.67
2022-11-23T08:27:38.693Z,4.05
2022-11-23T08:32:30.420Z,2.97
2022-11-23T08:37:22.263Z,4.13
2022-11-23T08:42:14.028Z,3.00
2022-11-23T08:47:06.288Z,1.67
2022-11-23T08:51:58.231Z,1.77
2022-11-23T08:56:51.418Z,2.13
2022-11-23T09:01:44.165Z,2.25
2022-11-23T09:06:35.971Z,1.65
2022-11-23T09:11:27.816Z,1.05
2022-11-23T09:16:19.571Z,1.48
2022-11-23T09:21:11.372Z,0.70
2022-11-23T09:26:04.914Z,2.13
2022-11-23T09:30:57.480Z,1.88
2022-11-23T09:36:00.181Z,2.10
2022-11-23T09:41:16.794Z,1.27
2022-11-23T09:46:22.314Z,0.57
2022-11-23T09:51:19.616Z,0.70
2022-11-23T09:56:19.360Z,3.63
2022-11-23T10:01:16.757Z,2.28
2022-11-23T10:06:28.235Z,5.73
2022-11-23T10:11:45.152Z,5.32
2022-11-23T10:16:42.141Z,8.15
2022-11-23T10:21:55.799Z,6.85
2022-11-23T10:26:50.116Z,6.65
2022-11-23T10:31:47.114Z,8.93
2022-11-23T10:36:40.027Z,7.82
2022-11-23T10:41:56.324Z,7.40
2022-11-23T10:46:48.765Z,10.98
2022-11-23T10:51:41.339Z,8.75
2022-11-23T10:56:35.188Z,6.55
2022-11-23T11:01:29.745Z,5.32
2022-11-23T11:06:26.959Z,7.72
2022-11-23T11:11:27.230Z,13.57
2022-11-23T11:16:38.384Z,10.35
2022-11-23T11:21:34.586Z,6.95
2022-11-23T11:26:28.442Z,6.40
2022-11-23T11:31:32.417Z,7.03
2022-11-23T11:36:28.723Z,9.15
2022-11-23T11:41:25.579Z,10.75
2022-11-23T11:46:30.904Z,9.80
2022-11-23T11:51:33.151Z,6.22
2022-11-23T11:56:34.966Z,11.13
2022-11-23T12:01:36.358Z,6.55
2022-11-23T12:06:40.203Z,8.30
2022-11-23T12:11:33.152Z,10.50
2022-11-23T12:16:24.917Z,9.25
2022-11-23T12:21:35.587Z,12.27
2022-11-23T12:27:09.606Z,6.68
2022-11-23T12:32:43.098Z,12.55
2022-11-23T12:37:40.621Z,12.80
2022-11-23T12:42:58.533Z,8.27
2022-11-23T12:48:20.887Z,8.37
2022-11-23T12:53:36.984Z,9.18
2022-11-23T12:58:30.877Z,6.85
2022-11-23T13:03:22.753Z,4.10
2022-11-23T13:08:30.398Z,1.83
2022-11-23T13:13:33.744Z,3.25
2022-11-23T13:19:04.901Z,3.45
2022-11-23T13:23:57.294Z,6.53
2022-11-23T13:28:53.169Z,8.90
2022-11-23T13:33:48.048Z,3.13
2022-11-23T13:38:42.161Z,5.75
2022-11-23T13:43:37.158Z,1.58
2022-11-23T13:48:57.982Z,3.20
2022-11-23T13:53:43.265Z,2.92
2022-11-23T13:58:39.663Z,2.47
2022-11-23T14:03:44.221Z,0.57
2022-11-23T14:08:38.601Z,2.55
2022-11-23T14:13:33.987Z,1.98
2022-11-23T14:18:49.242Z,1.35
2022-11-23T14:23:44.229Z,2.72
2022-11-23T14:28:57.278Z,2.20
2022-11-23T14:34:21.315Z,3.00
2022-11-23T14:39:28.020Z,5.03
2022-11-23T14:44:25.674Z,1.85
2022-11-23T14:49:17.637Z,2.75
2022-11-23T14:54:11.285Z,4.47
2022-11-23T14:59:11.048Z,2.22
2022-11-23T15:04:21.451Z,2.20
2022-11-23T15:09:19.753Z,4.70
2022-11-23T15:14:20.520Z,4.13
2022-11-23T15:19:38.784Z,3.70
2022-11-23T15:24:31.015Z,5.90
2022-11-23T15:29:35.588Z,3.88
2022-11-23T15:34:28.421Z,8.13
2022-11-23T15:39:24.183Z,5.30
2022-11-23T15:44:23.959Z,6.13
2022-11-23T15:49:16.781Z,4.22
2022-11-23T15:54:28.271Z,7.72
2022-11-23T15:59:29.091Z,5.60
2022-11-23T16:04:31.439Z,2.67
2022-11-23T16:09:54.317Z,5.10
2022-11-23T16:14:46.220Z,8.18
2022-11-23T16:19:38.038Z,6.80
2022-11-23T16:24:32.542Z,7.32
2022-11-23T16:29:27.237Z,7.38
2022-11-23T16:34:19.708Z,8.70
2022-11-23T16:39:12.018Z,8.23
2022-11-23T16:44:04.270Z,14.00
2022-11-23T16:48:59.174Z,9.05
2022-11-23T16:54:12.893Z,10.02
2022-11-23T16:59:02.775Z,14.27
2022-11-23T17:03:54.541Z,7.75
2022-11-23T17:08:46.619Z,15.55
2022-11-23T17:13:38.419Z,11.25
2022-11-23T17:18:30.072Z,7.40
2022-11-23T17:23:22.522Z,8.45
2022-11-23T17:28:22.541Z,7.88
2022-11-23T17:33:14.514Z,9.60
2022-11-23T17:38:08.097Z,8.55
2022-11-23T17:42:59.741Z,12.27
2022-11-23T17:47:51.719Z,7.78
2022-11-23T17:52:47.784Z,15.98
2022-11-23T17:57:39.950Z,10.18
2022-11-23T18:02:31.697Z,8.57
2022-11-23T18:07:23.608Z,9.43
2022-11-23T18:12:15.401Z,7.53
2022-11-23T18:17:07.220Z,5.93
2022-11-23T18:21:59.243Z,9.23
2022-11-23T18:26:50.962Z,9.60
2022-11-23T18:31:42.928Z,11.77
2022-11-23T18:36:34.547Z,5.50
2022-11-23T18:41:26.293Z,8.57
2022-11-23T18:46:19.155Z,10.63
2022-11-23T18:51:13.459Z,12.55
2022-11-23T18:56:06.919Z,10.82
2022-11-23T19:00:58.645Z,9.75
2022-11-23T19:05:50.535Z,9.73
2022-11-23T19:10:42.286Z,5.70
2022-11-23T19:15:34.383Z,6.93
2022-11-23T19:20:26.259Z,3.70
2022-11-23T19:25:19.447Z,4.88
2022-11-23T19:30:13.842Z,7.10
2022-11-23T19:35:06.214Z,9.52
2022-11-23T19:39:58.083Z,11.68
2022-11-23T19:44:49.942Z,4.35
2022-11-23T19:49:42.583Z,2.75
2022-11-23T19:54:35.657Z,3.22
2022-11-23T19:59:27.843Z,3.50
2022-11-23T20:04:19.471Z,12.65
2022-11-23T20:09:17.300Z,3.65
2022-11-23T20:14:11.832Z,3.13
2022-11-23T20:19:08.219Z,3.42
2022-11-23T20:24:05.210Z,3.63
2022-11-23T20:28:59.258Z,2.80
2022-11-23T20:33:51.665Z,6.40
2022-11-23T20:38:43.988Z,4.68
2022-11-23T20:43:35.615Z,8.35
2022-11-23T20:48:27.777Z,4.70
2022-11-23T20:53:19.514Z,3.65
2022-11-23T20:58:11.430Z,3.10
2022-11-23T21:03:03.232Z,1.38
2022-11-23T21:07:55.154Z,3.38
2022-11-23T21:13:05.619Z,11.27
2022-11-23T21:17:57.535Z,10.05
2022-11-23T21:22:49.190Z,6.60
2022-11-23T21:27:40.833Z,5.88
2022-11-23T21:32:32.551Z,5.97
2022-11-23T21:37:26.081Z,7.20
2022-11-23T21:42:17.775Z,3.20
2022-11-23T21:47:09.475Z,10.32
2022-11-23T21:52:01.397Z,12.70
2022-11-23T21:56:53.014Z,6.00
2022-11-23T22:01:44.856Z,9.00
2022-11-23T22:06:38.235Z,6.97
2022-11-23T22:11:32.438Z,4.93
2022-11-23T22:16:27.268Z,9.68
2022-11-23T22:21:20.705Z,2.10
2022-11-23T22:26:17.493Z,3.05
2022-11-23T22:31:12.128Z,5.32
2022-11-23T22:36:07.131Z,3.78
2022-11-23T22:41:00.170Z,7.03
2022-11-23T22:45:52.023Z,10.45
2022-11-23T22:50:46.526Z,10.45
2022-11-23T22:55:38.646Z,12.88
2022-11-23T23:00:30.400Z,5.25
2022-11-23T23:05:22.041Z,5.47
2022-11-23T23:10:13.945Z,11.95
2022-11-23T23:15:06.008Z,5.35
2022-11-23T23:19:57.748Z,4.50
2022-11-23T23:24:49.611Z,5.63
2022-11-23T23:29:41.386Z,4.47
2022-11-23T23:34:33.178Z,8.43
2022-11-23T23:39:25.008Z,8.55
2022-11-23T23:44:16.847Z,4.70
2022-11-23T23:49:08.640Z,8.55
2022-11-23T23:54:00.328Z,4.78
2022-11-23T23:58:52.755Z,4.97
